createdAt,value
2024-04-12T00:01:46.202Z,67.05
2024-04-12T00:04:17.020Z,67.06
2024-04-12T00:06:50.751Z,67.15
2024-04-12T00:09:19.446Z,67.13
2024-04-12T00:11:53.037Z,67.10
2024-04-12T00:14:23.061Z,67.39
2024-04-12T00:16:53.186Z,67.44
2024-04-12T00:19:23.625Z,67.20
2024-04-12T00:22:00.739Z,67.46
2024-04-12T00:24:30.795Z,67.53
2024-04-12T00:26:59.960Z,67.68
2024-04-12T00:29:37.785Z,67.85
2024-04-12T00:32:19.760Z,67.77
2024-04-12T00:34:49.372Z,68.03
2024-04-12T00:37:18.914Z,68.00
2024-04-12T00:39:49.291Z,67.87
2024-04-12T00:42:26.966Z,67.97
2024-04-12T00:44:55.842Z,67.91
2024-04-12T00:47:24.186Z,67.97
2024-04-12T00:49:52.585Z,68.07
2024-04-12T00:52:24.236Z,68.04
2024-04-12T00:55:03.926Z,68.42
2024-04-12T00:57:41.370Z,68.34
2024-04-12T01:00:13.883Z,68.41
2024-04-12T01:02:44.160Z,68.34
2024-04-12T01:05:18.262Z,68.27
2024-04-12T01:07:51.825Z,68.54
2024-04-12T01:10:41.888Z,68.48
2024-04-12T01:13:12.984Z,68.58
2024-04-12T01:15:40.636Z,68.61
2024-04-12T01:18:16.257Z,68.68
2024-04-12T01:20:44.644Z,68.77
2024-04-12T01:23:16.809Z,68.79
2024-04-12T01:25:46.315Z,68.83
2024-04-12T01:28:17.131Z,68.91
2024-04-12T01:30:47.243Z,68.95
2024-04-12T01:33:15.216Z,69.10
2024-04-12T01:35:46.676Z,69.21
2024-04-12T01:38:19.196Z,69.35
2024-04-12T01:40:59.975Z,69.39
2024-04-12T01:43:29.566Z,69.31
2024-04-12T01:45:57.677Z,69.32
2024-04-12T01:48:26.214Z,69.52
2024-04-12T01:50:54.447Z,69.32
2024-04-12T01:55:05.609Z,69.35
2024-04-12T01:57:33.970Z,69.51
2024-04-12T02:00:04.159Z,69.34
2024-04-12T02:02:33.823Z,69.35
2024-04-12T02:05:01.664Z,69.41
2024-04-12T02:14:52.111Z,69.42
2024-04-12T02:17:19.873Z,69.58
2024-04-12T02:19:48.438Z,69.53
2024-04-12T02:22:16.307Z,69.57
2024-04-12T02:24:45.596Z,69.63
2024-04-12T02:27:13.396Z,69.77
2024-04-12T02:29:42.585Z,69.71
2024-04-12T02:32:10.698Z,69.95
2024-04-12T02:34:38.532Z,69.88
2024-04-12T02:37:07.858Z,69.85
2024-04-12T02:39:41.675Z,70.12
2024-04-12T02:42:14.669Z,70.10
2024-04-12T02:44:42.701Z,70.36
2024-04-12T02:47:10.576Z,70.46
2024-04-12T02:49:41.331Z,70.51
2024-04-12T02:52:09.367Z,70.55
2024-04-12T02:54:37.217Z,70.82
2024-04-12T02:57:05.099Z,70.86
2024-04-12T02:59:33.773Z,71.08
2024-04-12T03:02:01.657Z,71.64
2024-04-12T03:04:29.495Z,71.80
2024-04-12T03:06:57.165Z,71.87
2024-04-12T03:09:28.896Z,72.15
2024-04-12T03:11:57.009Z,72.37
2024-04-12T03:14:25.354Z,72.54
2024-04-12T03:16:53.140Z,72.95
2024-04-12T03:19:20.987Z,73.23
2024-04-12T03:21:52.674Z,73.42
2024-04-12T03:24:21.193Z,73.57
2024-04-12T03:26:50.189Z,73.87
2024-04-12T03:29:18.774Z,74.20
2024-04-12T03:31:48.915Z,74.58
2024-04-12T03:34:17.503Z,75.33
2024-04-12T03:36:48.526Z,75.90
2024-04-12T03:39:23.125Z,75.72
2024-04-12T03:41:59.083Z,76.27
2024-04-12T03:44:32.359Z,76.20
2024-04-12T03:47:09.034Z,76.04
2024-04-12T03:49:42.071Z,76.56
2024-04-12T03:52:16.622Z,77.05
2024-04-12T03:54:47.616Z,76.92
2024-04-12T03:57:17.492Z,77.34
2024-04-12T03:59:46.695Z,77.75
2024-04-12T04:02:17.593Z,78.92
2024-04-12T04:04:46.871Z,81.72
2024-04-12T04:07:17.824Z,81.90
2024-04-12T04:09:47.408Z,82.29
2024-04-12T04:12:19.197Z,82.17
2024-04-12T04:14:51.203Z,81.81
2024-04-12T04:17:31.656Z,81.68
2024-04-12T04:20:07.312Z,81.67
2024-04-12T04:22:35.712Z,81.95
2024-04-12T04:25:09.697Z,82.67
2024-04-12T04:27:39.343Z,82.54
2024-04-12T04:30:08.371Z,82.67
2024-04-12T04:32:37.217Z,82.46
2024-04-12T04:35:10.662Z,82.33
2024-04-12T04:37:40.371Z,82.17
2024-04-12T04:40:18.820Z,82.27
2024-04-12T04:42:49.234Z,81.98
2024-04-12T04:45:22.521Z,81.91
2024-04-12T04:47:50.563Z,81.55
2024-04-12T04:50:21.035Z,81.65
2024-04-12T04:52:51.752Z,81.27
2024-04-12T04:55:19.998Z,80.93
2024-04-12T04:57:56.433Z,80.90
2024-04-12T05:00:26.002Z,80.99
2024-04-12T05:02:55.687Z,80.60
2024-04-12T05:05:26.917Z,80.59
2024-04-12T05:07:57.542Z,80.42
2024-04-12T05:10:27.253Z,80.30
2024-04-12T05:12:55.911Z,80.11
2024-04-12T05:15:42.404Z,80.06
2024-04-12T05:18:14.991Z,80.07
2024-04-12T05:20:45.249Z,79.75
2024-04-12T05:23:17.262Z,79.55
2024-04-12T05:25:45.483Z,79.38
2024-04-12T05:28:14.167Z,79.31
2024-04-12T05:30:44.523Z,79.33
2024-04-12T05:33:14.128Z,78.92
2024-04-12T05:35:42.609Z,78.52
2024-04-12T05:38:11.334Z,78.45
2024-04-12T05:40:43.079Z,78.24
2024-04-12T05:43:17.856Z,78.39
2024-04-12T05:45:51.099Z,78.15
2024-04-12T05:48:23.030Z,78.02
2024-04-12T05:50:55.242Z,77.88
2024-04-12T05:53:34.903Z,77.61
2024-04-12T05:56:22.438Z,77.46
2024-04-12T05:58:52.773Z,77.17
2024-04-12T06:01:26.344Z,76.82
2024-04-12T06:03:56.414Z,76.50
2024-04-12T06:06:25.541Z,75.62
2024-04-12T06:08:55.035Z,75.68
2024-04-12T06:11:26.547Z,75.56
2024-04-12T06:13:56.510Z,75.40
2024-04-12T06:16:26.131Z,75.07
2024-04-12T06:18:59.733Z,74.48
2024-04-12T06:21:32.733Z,73.82
2024-04-12T06:24:01.301Z,73.64
2024-04-12T06:26:29.307Z,73.40
2024-04-12T06:29:04.604Z,73.41
2024-04-12T06:31:36.053Z,73.35
2024-04-12T06:34:11.827Z,72.71
2024-04-12T06:36:47.170Z,71.62
2024-04-12T06:39:16.330Z,71.71
2024-04-12T06:41:46.918Z,71.66
2024-04-12T06:44:20.669Z,70.93
2024-04-12T06:46:53.459Z,70.82
2024-04-12T06:49:28.780Z,70.60
2024-04-12T06:52:10.299Z,70.23
2024-04-12T06:54:46.512Z,70.06
2024-04-12T06:57:23.617Z,69.68
2024-04-12T06:59:56.415Z,69.68
2024-04-12T07:02:30.777Z,69.74
2024-04-12T07:04:59.370Z,69.07
2024-04-12T07:07:29.940Z,68.46
2024-04-12T07:10:10.873Z,68.23
2024-04-12T07:12:39.678Z,67.54
2024-04-12T07:15:11.592Z,66.25
2024-04-12T07:17:40.984Z,66.69
2024-04-12T07:20:14.942Z,66.80
2024-04-12T07:22:43.159Z,67.24
2024-04-12T07:25:11.305Z,67.77
2024-04-12T07:27:42.796Z,67.35
2024-04-12T07:30:12.466Z,67.67
2024-04-12T07:32:40.628Z,67.80
2024-04-12T07:35:26.442Z,68.22
2024-04-12T07:38:04.161Z,67.94
2024-04-12T07:40:36.106Z,67.68
2024-04-12T07:43:14.742Z,67.44
2024-04-12T07:45:44.880Z,68.10
2024-04-12T07:48:22.015Z,68.07
2024-04-12T07:51:01.604Z,68.04
2024-04-12T07:53:32.051Z,68.27
2024-04-12T07:56:02.292Z,68.08
2024-04-12T07:58:35.879Z,68.46
2024-04-12T08:01:11.449Z,68.31
2024-04-12T08:03:40.824Z,68.28
2024-04-12T08:06:38.549Z,68.49
2024-04-12T08:09:22.262Z,68.88
2024-04-12T08:12:00.677Z,69.49
2024-04-12T08:14:29.808Z,69.53
2024-04-12T08:17:02.246Z,70.02
2024-04-12T08:19:46.924Z,70.37
2024-04-12T08:22:20.719Z,70.29
2024-04-12T08:24:50.931Z,70.71
2024-04-12T08:27:31.573Z,71.14
2024-04-12T08:30:00.000Z,70.69
2024-04-12T08:32:29.831Z,70.47
2024-04-12T08:34:59.946Z,71.19
2024-04-12T08:37:38.827Z,71.29
2024-04-12T08:40:11.086Z,71.13
2024-04-12T08:42:40.905Z,71.40
2024-04-12T08:45:19.358Z,71.84
2024-04-12T08:47:58.581Z,71.66
2024-04-12T08:50:33.142Z,72.13
2024-04-12T08:53:13.932Z,71.74
2024-04-12T08:55:45.648Z,71.65
2024-04-12T08:58:22.535Z,72.10
2024-04-12T09:00:56.435Z,72.49
2024-04-12T09:03:28.147Z,72.95
2024-04-12T09:05:58.852Z,73.28
2024-04-12T09:08:32.254Z,73.32
2024-04-12T09:11:07.025Z,73.68
2024-04-12T09:13:36.704Z,74.17
2024-04-12T09:16:08.880Z,74.20
2024-04-12T09:18:48.190Z,74.45
2024-04-12T09:21:37.947Z,74.68
2024-04-12T09:24:11.708Z,74.82
2024-04-12T09:26:56.892Z,75.22
2024-04-12T09:29:29.330Z,75.37
2024-04-12T09:32:20.019Z,75.72
2024-04-12T09:34:57.089Z,75.39
2024-04-12T09:37:39.667Z,75.19
2024-04-12T09:40:13.995Z,75.00
2024-04-12T09:42:56.715Z,75.16
2024-04-12T09:45:29.548Z,74.95
2024-04-12T09:48:18.596Z,74.33
2024-04-12T09:51:05.278Z,74.22
2024-04-12T09:53:52.320Z,73.96
2024-04-12T09:56:39.848Z,73.08
2024-04-12T09:59:48.204Z,72.61
2024-04-12T10:02:40.039Z,72.80
2024-04-12T10:05:29.136Z,72.32
2024-04-12T10:08:35.807Z,72.30
2024-04-12T10:11:41.424Z,72.31
2024-04-12T10:14:28.450Z,72.39
2024-04-12T10:17:16.768Z,72.94
2024-04-12T10:20:16.716Z,72.68
2024-04-12T10:23:03.330Z,73.24
2024-04-12T10:25:55.411Z,73.86
2024-04-12T10:28:42.284Z,74.33
2024-04-12T10:31:33.863Z,74.64
2024-04-12T10:34:27.633Z,74.92
2024-04-12T10:37:14.785Z,75.11
2024-04-12T10:39:46.188Z,75.41
2024-04-12T10:42:14.842Z,75.13
2024-04-12T10:44:42.601Z,75.12
2024-04-12T10:47:13.979Z,75.21
2024-04-12T10:49:44.474Z,75.32
2024-04-12T10:52:15.087Z,75.24
2024-04-12T10:54:48.980Z,75.12
2024-04-12T10:57:16.945Z,74.74
2024-04-12T10:59:44.850Z,74.23
2024-04-12T11:02:12.718Z,74.14
2024-04-12T11:05:00.941Z,74.55
2024-04-12T11:07:29.532Z,74.12
2024-04-12T11:10:00.190Z,74.45
2024-04-12T11:12:41.581Z,74.20
2024-04-12T11:15:25.552Z,74.80
2024-04-12T11:18:13.898Z,76.14
2024-04-12T11:21:07.318Z,76.48
2024-04-12T11:23:54.477Z,76.29
2024-04-12T11:26:41.039Z,76.18
2024-04-12T11:29:29.195Z,75.03
2024-04-12T11:31:58.501Z,74.32
2024-04-12T11:34:35.623Z,74.28
2024-04-12T11:37:07.518Z,74.71
2024-04-12T11:39:41.828Z,74.32
2024-04-12T11:42:20.169Z,74.08
2024-04-12T11:44:54.776Z,74.13
2024-04-12T11:47:25.115Z,74.44
2024-04-12T11:49:58.663Z,73.84
2024-04-12T11:52:27.482Z,73.70
2024-04-12T11:54:57.676Z,73.97
2024-04-12T11:57:31.198Z,74.27
2024-04-12T12:00:10.156Z,74.30
2024-04-12T12:02:44.386Z,73.08
2024-04-12T12:05:19.145Z,73.20
2024-04-12T12:07:48.349Z,73.58
2024-04-12T12:10:16.785Z,73.83
2024-04-12T12:12:45.269Z,73.74
2024-04-12T12:15:16.630Z,73.80
2024-04-12T12:17:49.191Z,74.16
2024-04-12T12:20:19.822Z,74.47
2024-04-12T12:22:48.723Z,73.99
2024-04-12T12:25:17.338Z,74.30
2024-04-12T12:27:45.064Z,74.43
2024-04-12T12:30:15.841Z,73.83
2024-04-12T12:32:46.258Z,73.70
2024-04-12T12:35:20.501Z,73.76
2024-04-12T12:37:49.917Z,73.35
2024-04-12T12:40:24.194Z,73.39
2024-04-12T12:42:56.869Z,73.25
2024-04-12T12:45:25.982Z,73.30
2024-04-12T12:47:54.692Z,73.43
2024-04-12T12:50:25.515Z,73.31
2024-04-12T12:52:53.505Z,73.14
2024-04-12T12:55:24.657Z,72.42
2024-04-12T12:58:10.655Z,72.17
2024-04-12T13:00:45.728Z,72.35
2024-04-12T13:03:18.832Z,72.66
2024-04-12T13:05:49.977Z,72.75
2024-04-12T13:08:18.662Z,73.04
2024-04-12T13:10:54.714Z,72.90
2024-04-12T13:13:27.670Z,72.81
2024-04-12T13:15:55.537Z,72.67
2024-04-12T13:18:29.152Z,72.46
2024-04-12T13:20:57.949Z,72.59
2024-04-12T13:23:26.868Z,72.95
2024-04-12T13:25:55.652Z,72.81
2024-04-12T13:28:24.948Z,73.02
2024-04-12T13:30:53.223Z,73.06
2024-04-12T13:33:20.993Z,72.93
2024-04-12T13:35:49.151Z,72.90
2024-04-12T13:38:17.284Z,73.23
2024-04-12T13:40:50.769Z,73.30
2024-04-12T13:43:18.904Z,73.00
2024-04-12T13:46:09.384Z,72.99
2024-04-12T13:48:56.704Z,72.88
2024-04-12T13:51:24.672Z,72.50
2024-04-12T13:53:52.777Z,71.91
2024-04-12T13:56:22.273Z,71.63
2024-04-12T13:58:53.267Z,70.73
2024-04-12T14:01:24.720Z,70.74
2024-04-12T14:04:05.339Z,70.68
2024-04-12T14:06:37.976Z,70.32
2024-04-12T14:09:10.971Z,70.00
2024-04-12T14:11:39.576Z,69.53
2024-04-12T14:14:08.016Z,68.02
2024-04-12T14:16:43.329Z,67.62
2024-04-12T14:19:21.540Z,66.94
2024-04-12T14:21:53.950Z,66.11
2024-04-12T14:24:42.499Z,64.84
2024-04-12T14:27:12.556Z,65.14
2024-04-12T14:29:40.715Z,65.26
2024-04-12T14:32:11.422Z,65.10
2024-04-12T14:34:44.861Z,65.13
2024-04-12T14:37:19.662Z,65.83
2024-04-12T14:39:47.834Z,66.57
2024-04-12T14:42:17.401Z,66.88
2024-04-12T14:44:45.528Z,66.78
2024-04-12T14:47:13.863Z,66.69
2024-04-12T14:49:42.522Z,66.39
2024-04-12T14:52:13.819Z,66.25
2024-04-12T14:54:41.530Z,67.02
2024-04-12T14:57:10.536Z,66.97
2024-04-12T14:59:39.068Z,66.95
2024-04-12T15:02:07.523Z,67.26
2024-04-12T15:04:54.546Z,67.15
2024-04-12T15:07:41.195Z,66.84
2024-04-12T15:10:27.753Z,67.26
2024-04-12T15:13:14.258Z,68.00
2024-04-12T15:16:00.794Z,68.59
2024-04-12T15:18:47.964Z,68.69
2024-04-12T15:21:34.901Z,68.64
2024-04-12T15:24:21.759Z,69.06
2024-04-12T15:27:08.434Z,69.18
2024-04-12T15:29:55.065Z,69.00
2024-04-12T15:32:41.638Z,68.93
2024-04-12T15:42:50.190Z,69.28
2024-04-12T15:45:36.882Z,69.55
2024-04-12T15:48:12.566Z,70.21
2024-04-12T15:50:41.708Z,70.37
2024-04-12T15:53:27.180Z,70.65
2024-04-12T15:55:55.514Z,70.88
2024-04-12T15:58:43.746Z,71.23
2024-04-12T16:01:42.124Z,71.71
2024-04-12T16:04:28.956Z,71.98
2024-04-12T16:07:15.690Z,72.01
2024-04-12T16:10:02.284Z,71.98
2024-04-12T16:12:30.833Z,72.30
2024-04-12T16:15:00.573Z,72.33
2024-04-12T16:17:29.832Z,72.40
2024-04-12T16:19:57.815Z,72.57
2024-04-12T16:22:28.430Z,72.83
2024-04-12T16:24:56.545Z,72.96
2024-04-12T16:27:25.172Z,73.17
2024-04-12T16:29:53.294Z,73.29
2024-04-12T16:32:21.334Z,73.43
2024-04-12T16:34:58.513Z,73.65
2024-04-12T16:37:26.446Z,73.98
2024-04-12T16:39:54.474Z,73.95
2024-04-12T16:42:22.531Z,73.53
2024-04-12T16:44:50.848Z,73.77
2024-04-12T16:47:18.616Z,74.07
2024-04-12T16:49:46.738Z,74.52
2024-04-12T16:52:15.375Z,74.87
2024-04-12T16:54:43.155Z,74.85
2024-04-12T16:57:12.819Z,74.97
2024-04-12T16:59:40.527Z,75.23
2024-04-12T17:02:08.874Z,75.42
2024-04-12T17:04:36.726Z,75.94
2024-04-12T17:07:04.708Z,76.25
2024-04-12T17:09:32.665Z,76.60
2024-04-12T17:12:00.452Z,77.18
2024-04-12T17:14:29.638Z,77.35
2024-04-12T17:16:57.489Z,77.82
2024-04-12T17:19:26.161Z,78.14
2024-04-12T17:21:54.740Z,78.38
2024-04-12T17:24:23.523Z,78.78
2024-04-12T17:26:53.441Z,78.90
2024-04-12T17:29:22.486Z,79.57
2024-04-12T17:31:51.209Z,80.92
2024-04-12T17:34:19.191Z,80.93
2024-04-12T17:36:47.379Z,81.87
2024-04-12T17:39:15.611Z,82.22
2024-04-12T17:41:43.401Z,82.09
2024-04-12T17:44:11.388Z,82.53
2024-04-12T17:46:39.333Z,82.97
2024-04-12T17:49:07.707Z,83.03
2024-04-12T17:51:35.805Z,83.40
2024-04-12T17:54:04.822Z,83.77
2024-04-12T17:56:34.373Z,84.39
2024-04-12T17:59:02.141Z,84.34
2024-04-12T18:01:31.842Z,85.44
2024-04-12T18:04:02.115Z,85.93
2024-04-12T18:06:30.172Z,85.75
2024-04-12T18:08:58.775Z,86.11
2024-04-12T18:11:28.282Z,86.49
2024-04-12T18:13:59.094Z,86.94
2024-04-12T18:16:27.449Z,87.33
2024-04-12T18:18:55.667Z,87.95
2024-04-12T18:21:23.834Z,87.29
2024-04-12T18:23:51.961Z,87.21
2024-04-12T18:26:20.567Z,88.54
2024-04-12T18:28:51.363Z,88.33
2024-04-12T18:31:19.161Z,88.56
2024-04-12T18:33:47.855Z,88.80
2024-04-12T18:36:22.884Z,89.02
2024-04-12T18:39:11.052Z,88.87
2024-04-12T18:42:00.175Z,89.17
2024-04-12T18:44:48.008Z,89.69
2024-04-12T18:47:16.067Z,89.46
2024-04-12T18:49:45.541Z,91.78
2024-04-12T18:52:15.088Z,91.94
2024-04-12T18:54:43.279Z,92.53
2024-04-12T18:57:11.237Z,91.92
2024-04-12T18:59:39.054Z,93.00
2024-04-12T19:02:07.934Z,94.05
2024-04-12T19:04:36.274Z,93.13
2024-04-12T19:07:04.435Z,92.77
2024-04-12T19:09:32.924Z,92.86
2024-04-12T19:12:00.992Z,92.94
2024-04-12T19:14:28.906Z,93.36
2024-04-12T19:16:58.172Z,93.24
2024-04-12T19:19:26.704Z,93.47
2024-04-12T19:21:56.127Z,93.60
2024-04-12T19:24:24.045Z,93.48
2024-04-12T19:26:54.420Z,94.75
2024-04-12T19:29:25.476Z,94.74
2024-04-12T19:31:54.500Z,95.03
2024-04-12T19:34:22.375Z,94.85
2024-04-12T19:36:50.176Z,95.43
2024-04-12T19:39:19.080Z,95.32
2024-04-12T19:41:47.272Z,95.42
2024-04-12T19:44:16.187Z,96.52
2024-04-12T19:46:44.576Z,96.87
2024-04-12T19:49:12.522Z,97.66
2024-04-12T19:51:40.334Z,98.14
2024-04-12T19:54:08.482Z,97.92
2024-04-12T19:56:36.403Z,98.58
2024-04-12T19:59:04.392Z,98.41
2024-04-12T20:01:32.470Z,98.78
2024-04-12T20:04:00.196Z,98.71
2024-04-12T20:06:28.384Z,98.81
2024-04-12T20:08:56.607Z,99.67
2024-04-12T20:11:24.538Z,99.54
2024-04-12T20:13:52.505Z,99.51
2024-04-12T20:16:21.178Z,99.64
2024-04-12T20:18:49.513Z,100.00
2024-04-12T20:21:17.824Z,100.00
2024-04-12T20:23:46.099Z,100.00
2024-04-12T20:26:16.552Z,100.00
2024-04-12T20:28:48.708Z,100.00
2024-04-12T20:31:20.702Z,100.00
2024-04-12T20:34:05.970Z,100.00
2024-04-12T20:36:38.511Z,100.00
2024-04-12T20:39:19.504Z,100.00
2024-04-12T20:41:50.912Z,100.00
2024-04-12T20:44:21.776Z,100.00
2024-04-12T20:46:51.905Z,100.00
2024-04-12T20:49:20.898Z,100.00
2024-04-12T20:51:50.501Z,100.00
2024-04-12T20:54:18.501Z,100.00
2024-04-12T20:56:50.305Z,100.00
2024-04-12T20:59:21.419Z,100.00
2024-04-12T21:01:51.264Z,100.00
2024-04-12T21:04:20.805Z,100.00
2024-04-12T21:06:53.486Z,100.00
2024-04-12T21:09:22.123Z,100.00
2024-04-12T21:11:52.296Z,100.00
2024-04-12T21:14:20.163Z,100.00
2024-04-12T21:16:48.023Z,100.00
2024-04-12T21:19:17.305Z,100.00
2024-04-12T21:21:44.992Z,100.00
2024-04-12T21:24:16.187Z,100.00
2024-04-12T21:26:45.183Z,100.00
2024-04-12T21:29:13.062Z,100.00
2024-04-12T21:31:41.154Z,100.00
2024-04-12T21:34:09.129Z,100.00
2024-04-12T21:36:39.354Z,100.00
2024-04-12T21:39:07.649Z,100.00
2024-04-12T21:41:36.505Z,100.00
2024-04-12T21:44:04.995Z,100.00
2024-04-12T21:46:32.839Z,100.00
2024-04-12T21:49:01.014Z,100.00
2024-04-12T21:51:30.262Z,100.00
2024-04-12T21:54:01.321Z,100.00
2024-04-12T21:56:31.998Z,100.00
2024-04-12T21:59:00.055Z,100.00
2024-04-12T22:01:28.216Z,100.00
2024-04-12T22:03:56.549Z,100.00
2024-04-12T22:06:24.635Z,100.00
2024-04-12T22:08:55.491Z,100.00
2024-04-12T22:11:24.809Z,100.00
2024-04-12T22:13:53.101Z,100.00
2024-04-12T22:16:21.239Z,100.00
2024-04-12T22:18:49.146Z,100.00
2024-04-12T22:21:18.019Z,100.00
2024-04-12T22:23:49.550Z,100.00
2024-04-12T22:26:20.238Z,100.00
2024-04-12T22:28:49.674Z,100.00
2024-04-12T22:31:19.443Z,100.00
2024-04-12T22:33:49.074Z,100.00
2024-04-12T22:36:20.754Z,100.00
2024-04-12T22:38:50.073Z,100.00
2024-04-12T22:41:18.788Z,100.00
2024-04-12T22:43:46.955Z,100.00
2024-04-12T22:46:15.995Z,100.00
2024-04-12T22:48:46.308Z,100.00
2024-04-12T22:51:25.505Z,100.00
2024-04-12T22:53:53.836Z,100.00
2024-04-12T22:56:25.328Z,100.00
2024-04-12T22:58:57.845Z,100.00
2024-04-12T23:01:28.156Z,100.00
2024-04-12T23:03:57.034Z,100.00
2024-04-12T23:06:25.013Z,100.00
2024-04-12T23:08:53.054Z,100.00
2024-04-12T23:11:21.184Z,100.00
2024-04-12T23:13:48.982Z,100.00
2024-04-12T23:16:16.785Z,100.00
2024-04-12T23:18:44.861Z,100.00
2024-04-12T23:21:12.996Z,100.00
2024-04-12T23:23:40.867Z,100.00
2024-04-12T23:26:08.516Z,100.00
2024-04-12T23:28:36.567Z,100.00
2024-04-12T23:31:04.813Z,100.00
2024-04-12T23:33:32.679Z,100.00
2024-04-12T23:36:00.672Z,100.00
2024-04-12T23:38:28.432Z,100.00
2024-04-12T23:40:56.128Z,100.00
2024-04-12T23:43:24.591Z,100.00
2024-04-12T23:45:52.463Z,100.00
2024-04-12T23:48:20.284Z,100.00
2024-04-12T23:50:47.976Z,100.00
2024-04-12T23:53:15.674Z,100.00
2024-04-12T23:55:43.416Z,100.00
2024-04-12T23:58:11.190Z,100.00
